Time;durP1;ratioP1;P1;durP2;ratioP2;P2;SDS_P1;SDS_P2;PMS_P1;PMS_P2;Temp;Humidity;BMP_temperature;BMP_pressure;BME280_temperature;BME280_humidity;BME280_pressure;Samples;Min_cycle;Max_cycle;Signal;HPM_P1;HPM_P2
2022/11/17 00:01:53;;;;;;;12.35;3.45;;;;;;;;;;5054990;28;20040;-73
2022/11/17 00:04:19;;;;;;;6.43;3.47;;;;;;;;;;5054980;28;20069;-73
2022/11/17 00:06:45;;;;;;;9.25;3.17;;;;;;;;;;5054928;28;20052;-73
2022/11/17 00:09:16;;;;;;;6.35;3.78;;;;;;;;;;5055325;28;20112;-73
2022/11/17 00:14:31;;;;;;;8.23;4.00;;;;;;;;;;5054298;28;20036;-72
2022/11/17 00:16:57;;;;;;;14.60;8.25;;;;;;;;;;5055279;28;20044;-73
2022/11/17 00:22:08;;;;;;;13.02;7.07;;;;;;;;;;5054318;28;20071;-73
2022/11/17 00:24:34;;;;;;;16.98;7.60;;;;;;;;;;5054782;28;20053;-73
2022/11/17 00:27:00;;;;;;;13.38;7.72;;;;;;;;;;5054292;28;20098;-72
2022/11/17 00:29:27;;;;;;;15.77;7.45;;;;;;;;;;5054865;28;20072;-72
2022/11/17 00:34:38;;;;;;;12.23;5.35;;;;;;;;;;5053809;28;20458;-73
2022/11/17 00:37:05;;;;;;;12.52;5.03;;;;;;;;;;5054234;28;20087;-73
2022/11/17 00:39:31;;;;;;;11.68;5.03;;;;;;;;;;5054801;28;20053;-73
2022/11/17 00:41:58;;;;;;;13.23;4.50;;;;;;;;;;5052802;28;20123;-73
2022/11/17 00:44:24;;;;;;;11.52;6.40;;;;;;;;;;5053895;28;20112;-73
2022/11/17 00:46:51;;;;;;;12.85;6.05;;;;;;;;;;5054174;28;20043;-73
2022/11/17 00:49:20;;;;;;;12.32;4.03;;;;;;;;;;5054152;28;20120;-73
2022/11/17 00:51:46;;;;;;;7.30;3.70;;;;;;;;;;5054424;28;20108;-73
2022/11/17 00:54:13;;;;;;;11.68;4.03;;;;;;;;;;5054118;28;20099;-73
2022/11/17 00:56:40;;;;;;;9.07;3.33;;;;;;;;;;5053883;28;20127;-73
2022/11/17 00:59:06;;;;;;;5.47;3.38;;;;;;;;;;5054114;28;20071;-73
2022/11/17 01:01:32;;;;;;;9.43;3.35;;;;;;;;;;5054357;28;20041;-73
2022/11/17 01:04:02;;;;;;;7.28;4.97;;;;;;;;;;5054068;28;20037;-73
2022/11/17 01:06:33;;;;;;;10.90;3.40;;;;;;;;;;5052811;28;20399;-73
2022/11/17 01:08:59;;;;;;;;;;;;;;;;;;5056898;28;20167;-73
2022/11/17 01:11:25;;;;;;;6.53;3.20;;;;;;;;;;5057374;28;20383;-73
2022/11/17 01:13:53;;;;;;;10.57;4.07;;;;;;;;;;5057815;28;20051;-73
2022/11/17 01:16:19;;;;;;;8.02;3.88;;;;;;;;;;5057418;28;20090;-73
2022/11/17 01:18:46;;;;;;;7.60;4.47;;;;;;;;;;5057774;28;20053;-73
2022/11/17 01:21:20;;;;;;;10.32;5.72;;;;;;;;;;5057673;28;20503;-73
2022/11/17 01:23:47;;;;;;;13.88;8.02;;;;;;;;;;5057415;28;20037;-73
2022/11/17 01:26:16;;;;;;;11.77;6.30;;;;;;;;;;5056939;28;20064;-73
2022/11/17 01:28:42;;;;;;;12.57;6.30;;;;;;;;;;5057591;28;20470;-73
2022/11/17 01:31:10;;;;;;;16.77;9.07;;;;;;;;;;5057209;28;20041;-73
2022/11/17 01:33:36;;;;;;;15.77;6.80;;;;;;;;;;5057163;28;20392;-73
2022/11/17 01:36:07;;;;;;;8.90;5.03;;;;;;;;;;5057052;28;20049;-73
2022/11/17 01:38:33;;;;;;;8.15;4.50;;;;;;;;;;5057459;28;20067;-73
2022/11/17 01:41:00;;;;;;;15.48;5.05;;;;;;;;;;5057167;28;20041;-73
2022/11/17 01:43:37;;;;;;;7.57;4.18;;;;;;;;;;5057184;28;20052;-73
2022/11/17 01:46:03;;;;;;;6.97;3.00;;;;;;;;;;5056879;28;20037;-73
2022/11/17 01:48:29;;;;;;;6.22;3.17;;;;;;;;;;5056936;28;20079;-73
2022/11/17 01:50:55;;;;;;;6.72;2.92;;;;;;;;;;5057319;28;20040;-72
2022/11/17 01:53:22;;;;;;;6.85;3.10;;;;;;;;;;5056880;28;20045;-73
2022/11/17 01:55:52;;;;;;;5.13;2.60;;;;;;;;;;5056452;28;20044;-72
2022/11/17 01:58:20;;;;;;;6.63;3.10;;;;;;;;;;5057025;28;20056;-73
2022/11/17 02:00:46;;;;;;;5.97;2.72;;;;;;;;;;5057077;28;20045;-73
2022/11/17 02:03:13;;;;;;;4.90;3.28;;;;;;;;;;5056639;28;20055;-73
2022/11/17 02:05:43;;;;;;;7.18;2.90;;;;;;;;;;5056887;28;20119;-73
2022/11/17 02:08:10;;;;;;;5.88;2.17;;;;;;;;;;5056812;28;20071;-73
2022/11/17 02:10:37;;;;;;;5.47;2.33;;;;;;;;;;5056806;28;20036;-73
2022/11/17 02:13:03;;;;;;;7.53;2.63;;;;;;;;;;5056463;28;20049;-72
2022/11/17 02:15:29;;;;;;;5.40;2.67;;;;;;;;;;5056340;28;20041;-73
2022/11/17 02:17:56;;;;;;;4.72;2.63;;;;;;;;;;5056319;28;20049;-72
2022/11/17 02:20:31;;;;;;;6.90;2.83;;;;;;;;;;5056271;28;20144;-73
2022/11/17 02:23:13;;;;;;;5.15;3.15;;;;;;;;;;5056301;28;20041;-73
2022/11/17 02:25:52;;;;;;;7.93;3.10;;;;;;;;;;5056036;28;20135;-72
2022/11/17 02:28:37;;;;;;;11.23;5.13;;;;;;;;;;5057002;28;20044;-73
2022/11/17 02:31:21;;;;;;;9.02;3.97;;;;;;;;;;5055954;28;20037;-73
2022/11/17 02:33:59;;;;;;;10.68;5.68;;;;;;;;;;5056106;28;20127;-73
2022/11/17 02:36:41;;;;;;;13.27;6.75;;;;;;;;;;5055956;28;20574;-73
2022/11/17 02:39:10;;;;;;;10.82;5.40;;;;;;;;;;5056297;28;20492;-73
2022/11/17 02:41:43;;;;;;;58.55;23.48;;;;;;;;;;5056083;28;20037;-73
2022/11/17 02:44:12;;;;;;;30.92;13.55;;;;;;;;;;5056061;28;20040;-73
2022/11/17 02:46:44;;;;;;;29.23;10.73;;;;;;;;;;5056126;28;20045;-73
2022/11/17 02:49:21;;;;;;;14.48;5.82;;;;;;;;;;5056084;28;20044;-73
2022/11/17 02:51:50;;;;;;;9.68;3.53;;;;;;;;;;5056259;28;20064;-73
2022/11/17 02:54:17;;;;;;;6.75;2.40;;;;;;;;;;5055943;28;20128;-73
2022/11/17 02:56:43;;;;;;;6.53;3.20;;;;;;;;;;5055752;28;20056;-73
2022/11/17 02:59:10;;;;;;;16.60;15.05;;;;;;;;;;5056423;28;20473;-73
2022/11/17 03:01:36;;;;;;;6.10;2.85;;;;;;;;;;5056080;28;20032;-73
2022/11/17 03:04:02;;;;;;;7.43;4.35;;;;;;;;;;5056329;28;20484;-73
2022/11/17 03:06:28;;;;;;;11.05;5.35;;;;;;;;;;5055718;28;20059;-73
2022/11/17 03:09:13;;;;;;;22.52;12.68;;;;;;;;;;5055448;28;20468;-73
2022/11/17 03:11:47;;;;;;;25.83;10.57;;;;;;;;;;5055452;28;20041;-73
2022/11/17 03:14:19;;;;;;;21.27;8.60;;;;;;;;;;5055286;28;20041;-73
2022/11/17 03:16:56;;;;;;;20.83;9.48;;;;;;;;;;5055817;28;20045;-73
2022/11/17 03:19:32;;;;;;;8.68;5.55;;;;;;;;;;5056041;28;20053;-73
2022/11/17 03:22:11;;;;;;;18.73;9.80;;;;;;;;;;5055449;28;20123;-73
2022/11/17 03:24:49;;;;;;;9.40;5.25;;;;;;;;;;5055207;28;20057;-73
2022/11/17 03:27:15;;;;;;;10.10;4.80;;;;;;;;;;5055378;28;20053;-72
2022/11/17 03:29:43;;;;;;;16.55;6.72;;;;;;;;;;5055033;28;20120;-73
2022/11/17 03:32:10;;;;;;;13.82;6.05;;;;;;;;;;5055100;28;20098;-73
2022/11/17 03:34:39;;;;;;;8.38;4.65;;;;;;;;;;5055210;28;20040;-73
2022/11/17 03:37:07;;;;;;;13.18;4.97;;;;;;;;;;5055053;28;20095;-73
2022/11/17 03:39:35;;;;;;;10.05;3.65;;;;;;;;;;5055454;28;20500;-73
2022/11/17 03:42:04;;;;;;;8.05;2.80;;;;;;;;;;5054922;28;20044;-73
2022/11/17 03:44:32;;;;;;;10.10;2.70;;;;;;;;;;5055520;28;20124;-73
2022/11/17 03:46:59;;;;;;;5.40;2.33;;;;;;;;;;5055027;28;20120;-73
2022/11/17 03:49:49;;;;;;;7.78;2.63;;;;;;;;;;5055471;28;20511;-73
2022/11/17 03:52:15;;;;;;;8.52;2.97;;;;;;;;;;5055249;28;20041;-73
2022/11/17 03:54:41;;;;;;;7.30;4.43;;;;;;;;;;5054710;28;20036;-73
2022/11/17 03:57:18;;;;;;;13.60;6.20;;;;;;;;;;5055299;28;20545;-73
2022/11/17 03:59:45;;;;;;;8.30;4.88;;;;;;;;;;5054157;28;20048;-72
2022/11/17 04:02:18;;;;;;;12.15;4.55;;;;;;;;;;5054644;28;20120;-73
2022/11/17 04:07:29;;;;;;;8.85;4.93;;;;;;;;;;5054164;28;20085;-73
2022/11/17 04:09:55;;;;;;;7.75;4.28;;;;;;;;;;5054540;28;20503;-73
2022/11/17 04:17:51;;;;;;;7.47;3.65;;;;;;;;;;5054039;28;20543;-73
2022/11/17 04:20:17;;;;;;;9.68;3.83;;;;;;;;;;5054540;28;20048;-73
2022/11/17 04:22:43;;;;;;;10.65;4.80;;;;;;;;;;5054578;28;20044;-73
2022/11/17 04:28:35;;;;;;;13.82;5.55;;;;;;;;;;5054081;28;20070;-73
2022/11/17 04:30:37;;;;;;;4.35;2.90;;;;;;;;;;5053858;28;20082;-73
2022/11/17 04:33:03;;;;;;;6.47;3.25;;;;;;;;;;5054340;28;20037;-73
2022/11/17 04:35:29;;;;;;;5.97;3.05;;;;;;;;;;5054297;28;20546;-73
2022/11/17 04:37:55;;;;;;;12.65;4.22;;;;;;;;;;5054578;28;20044;-73
2022/11/17 04:40:21;;;;;;;12.43;4.88;;;;;;;;;;5054468;28;20076;-73
2022/11/17 04:42:48;;;;;;;5.82;4.00;;;;;;;;;;5057135;28;20125;-73
2022/11/17 04:45:14;;;;;;;9.90;3.90;;;;;;;;;;5058099;28;20052;-73
2022/11/17 04:47:40;;;;;;;7.30;3.63;;;;;;;;;;5058561;28;20041;-73
2022/11/17 04:50:06;;;;;;;9.07;3.80;;;;;;;;;;5058673;28;20037;-73
2022/11/17 04:52:32;;;;;;;7.38;3.30;;;;;;;;;;5058232;28;20041;-73
2022/11/17 04:54:58;;;;;;;12.88;5.00;;;;;;;;;;5057994;28;20068;-73
2022/11/17 04:57:25;;;;;;;7.55;3.97;;;;;;;;;;5058193;28;20073;-73
2022/11/17 04:59:51;;;;;;;8.10;3.80;;;;;;;;;;5058497;28;20044;-73
2022/11/17 05:02:17;;;;;;;6.35;3.33;;;;;;;;;;5057864;28;20127;-73
2022/11/17 05:04:55;;;;;;;12.18;6.65;;;;;;;;;;5076706;28;20039;-73
2022/11/17 05:07:21;;;;;;;8.13;4.85;;;;;;;;;;5077857;28;20129;-73
2022/11/17 05:09:47;;;;;;;20.38;10.40;;;;;;;;;;5077988;28;20045;-73
2022/11/17 05:14:59;;;;;;;12.30;5.72;;;;;;;;;;5077785;28;20035;-73
2022/11/17 05:17:25;;;;;;;17.58;8.77;;;;;;;;;;5077486;28;20048;-73
2022/11/17 05:19:51;;;;;;;13.93;8.52;;;;;;;;;;5077746;28;20101;-74
2022/11/17 05:25:04;;;;;;;17.38;8.15;;;;;;;;;;5077166;28;20063;-74
2022/11/17 05:27:32;;;;;;;17.67;9.07;;;;;;;;;;5062702;28;20037;-73
2022/11/17 05:29:58;;;;;;;50.17;34.53;;;;;;;;;;5056373;28;20048;-73
2022/11/17 05:32:24;;;;;;;20.35;10.77;;;;;;;;;;5057275;28;20037;-72
2022/11/17 05:34:50;;;;;;;15.63;7.93;;;;;;;;;;5056370;28;20136;-73
2022/11/17 05:37:16;;;;;;;14.70;7.57;;;;;;;;;;5056920;28;20041;-73
2022/11/17 05:39:42;;;;;;;18.33;4.13;;;;;;;;;;5056312;28;20076;-73
2022/11/17 05:42:08;;;;;;;19.35;7.70;;;;;;;;;;5056627;28;20120;-73
2022/11/17 05:44:35;;;;;;;22.83;7.20;;;;;;;;;;5056707;28;20484;-73
2022/11/17 05:47:01;;;;;;;28.00;5.95;;;;;;;;;;5055586;28;20044;-73
2022/11/17 05:49:27;;;;;;;22.48;4.32;;;;;;;;;;5055819;28;20041;-73
2022/11/17 05:51:53;;;;;;;23.88;8.02;;;;;;;;;;5055605;28;20438;-74
2022/11/17 05:54:19;;;;;;;29.85;9.52;;;;;;;;;;5054871;28;20045;-73
2022/11/17 05:56:48;;;;;;;27.58;12.07;;;;;;;;;;5055602;28;20073;-73
2022/11/17 05:59:32;;;;;;;25.67;8.00;;;;;;;;;;5055023;28;20512;-72
2022/11/17 06:02:00;;;;;;;23.77;6.28;;;;;;;;;;5054584;28;20083;-72
2022/11/17 06:04:26;;;;;;;29.52;9.38;;;;;;;;;;5055216;28;20076;-72
2022/11/17 06:06:57;;;;;;;46.47;20.95;;;;;;;;;;5055887;28;20044;-72
2022/11/17 06:09:24;;;;;;;33.58;14.60;;;;;;;;;;5056137;28;20045;-72
2022/11/17 06:11:50;;;;;;;27.45;8.73;;;;;;;;;;5055422;28;20043;-72
2022/11/17 06:14:16;;;;;;;20.73;6.45;;;;;;;;;;5055974;28;20532;-72
2022/11/17 06:16:45;;;;;;;29.70;4.03;;;;;;;;;;5056018;28;20052;-72
2022/11/17 06:19:14;;;;;;;21.55;3.25;;;;;;;;;;5055986;28;20053;-72
2022/11/17 06:21:40;;;;;;;25.08;4.55;;;;;;;;;;5055856;28;20064;-70
2022/11/17 06:24:07;;;;;;;18.17;3.58;;;;;;;;;;5055552;28;20044;-70
2022/11/17 06:26:34;;;;;;;19.80;3.58;;;;;;;;;;5055781;28;20056;-71
2022/11/17 06:29:01;;;;;;;17.23;4.55;;;;;;;;;;5055061;28;20044;-71
2022/11/17 06:31:28;;;;;;;20.85;4.47;;;;;;;;;;5055728;28;20071;-71
2022/11/17 06:33:54;;;;;;;20.60;4.63;;;;;;;;;;5056375;28;20028;-72
2022/11/17 06:36:20;;;;;;;30.65;8.45;;;;;;;;;;5056229;28;20055;-72
2022/11/17 06:38:46;;;;;;;26.17;6.40;;;;;;;;;;5055994;28;20045;-73
2022/11/17 06:41:12;;;;;;;18.83;4.47;;;;;;;;;;5055759;28;20125;-73
2022/11/17 06:43:38;;;;;;;26.58;4.75;;;;;;;;;;5056208;28;20037;-72
2022/11/17 06:46:05;;;;;;;14.43;4.03;;;;;;;;;;5056138;28;20491;-73
2022/11/17 06:48:34;;;;;;;15.52;3.72;;;;;;;;;;5055825;28;20178;-73
2022/11/17 06:51:01;;;;;;;23.80;3.53;;;;;;;;;;5055659;28;20166;-73
2022/11/17 06:53:27;;;;;;;14.88;2.92;;;;;;;;;;5055420;28;20057;-73
2022/11/17 06:56:10;;;;;;;14.43;3.65;;;;;;;;;;5055012;28;20049;-74
2022/11/17 06:58:37;;;;;;;20.50;2.88;;;;;;;;;;5054500;28;20499;-74
2022/11/17 07:01:04;;;;;;;19.17;3.42;;;;;;;;;;5055182;28;20044;-73
2022/11/17 07:03:32;;;;;;;18.80;3.83;;;;;;;;;;5055146;28;20491;-73
2022/11/17 07:05:59;;;;;;;18.23;4.05;;;;;;;;;;5053953;28;20496;-74
2022/11/17 07:08:26;;;;;;;15.73;4.00;;;;;;;;;;5055040;28;20028;-74
2022/11/17 07:10:53;;;;;;;18.52;3.33;;;;;;;;;;5054563;28;20458;-74
2022/11/17 07:13:23;;;;;;;20.02;4.00;;;;;;;;;;5055313;28;20090;-74
2022/11/17 07:15:49;;;;;;;23.23;4.93;;;;;;;;;;5055506;28;20041;-73
2022/11/17 07:18:18;;;;;;;17.02;3.45;;;;;;;;;;5055495;28;20135;-73
2022/11/17 07:20:45;;;;;;;18.98;4.72;;;;;;;;;;5055204;28;20049;-72
2022/11/17 07:23:11;;;;;;;19.42;4.18;;;;;;;;;;5055449;28;20067;-72
2022/11/17 07:25:37;;;;;;;17.45;4.18;;;;;;;;;;5054631;28;20064;-71
2022/11/17 07:28:04;;;;;;;18.63;4.05;;;;;;;;;;5055324;28;20041;-71
2022/11/17 07:30:30;;;;;;;20.33;4.28;;;;;;;;;;5055615;28;20045;-72
2022/11/17 07:33:00;;;;;;;16.65;3.50;;;;;;;;;;5055795;28;20124;-71
2022/11/17 07:35:26;;;;;;;15.90;4.13;;;;;;;;;;5055086;28;20041;-72
2022/11/17 07:37:56;;;;;;;18.25;5.75;;;;;;;;;;5055127;28;20037;-71
2022/11/17 07:40:22;;;;;;;17.20;4.80;;;;;;;;;;5054975;28;20508;-72
2022/11/17 07:42:48;;;;;;;14.20;4.68;;;;;;;;;;5054797;28;20049;-71
2022/11/17 07:45:15;;;;;;;13.07;4.28;;;;;;;;;;5054698;28;20463;-71
2022/11/17 07:47:41;;;;;;;15.88;4.28;;;;;;;;;;5054978;28;20045;-72
2022/11/17 07:50:07;;;;;;;13.80;4.18;;;;;;;;;;5055029;28;20045;-72
2022/11/17 07:52:33;;;;;;;16.20;3.70;;;;;;;;;;5055100;28;20462;-71
2022/11/17 07:54:59;;;;;;;15.77;3.78;;;;;;;;;;5054756;28;20094;-71
2022/11/17 07:57:27;;;;;;;20.17;4.38;;;;;;;;;;5055232;28;20048;-71
2022/11/17 07:59:54;;;;;;;14.48;4.60;;;;;;;;;;5054624;28;20543;-72
2022/11/17 08:02:20;;;;;;;13.38;3.60;;;;;;;;;;5054773;28;20033;-71
2022/11/17 08:04:46;;;;;;;15.40;3.97;;;;;;;;;;5054709;28;20060;-71
2022/11/17 08:07:12;;;;;;;17.65;5.15;;;;;;;;;;5054688;28;20052;-72
2022/11/17 08:09:38;;;;;;;16.02;4.95;;;;;;;;;;5054745;28;20041;-72
2022/11/17 08:12:05;;;;;;;27.33;7.75;;;;;;;;;;5054543;28;20043;-71
2022/11/17 08:14:31;;;;;;;22.58;6.05;;;;;;;;;;5054293;28;20060;-71
2022/11/17 08:16:57;;;;;;;59.30;19.70;;;;;;;;;;5054124;28;20037;-71
2022/11/17 08:19:23;;;;;;;60.33;22.73;;;;;;;;;;5053913;28;20041;-71
2022/11/17 08:21:49;;;;;;;54.60;21.17;;;;;;;;;;5055035;28;20549;-71
2022/11/17 08:24:15;;;;;;;48.53;15.60;;;;;;;;;;5053877;28;20036;-72
2022/11/17 08:26:43;;;;;;;34.05;8.80;;;;;;;;;;5053888;28;20148;-71
2022/11/17 08:29:09;;;;;;;31.02;9.60;;;;;;;;;;5054978;28;20047;-71
2022/11/17 08:31:35;;;;;;;34.45;8.82;;;;;;;;;;5054500;28;20044;-72
2022/11/17 08:34:01;;;;;;;28.40;6.65;;;;;;;;;;5054276;28;20037;-71
2022/11/17 08:36:27;;;;;;;19.02;5.32;;;;;;;;;;5053977;28;20049;-71
2022/11/17 08:38:53;;;;;;;29.33;5.65;;;;;;;;;;5054577;28;20041;-72
2022/11/17 08:41:20;;;;;;;23.95;5.93;;;;;;;;;;5054094;28;20048;-71
2022/11/17 08:43:46;;;;;;;29.23;6.13;;;;;;;;;;5054005;28;20048;-71
2022/11/17 08:46:13;;;;;;;20.38;5.07;;;;;;;;;;5054243;28;20132;-71
2022/11/17 08:48:39;;;;;;;27.08;7.07;;;;;;;;;;5054234;28;20041;-71
2022/11/17 08:51:06;;;;;;;25.20;5.50;;;;;;;;;;5054008;28;20045;-71
2022/11/17 08:53:32;;;;;;;21.02;4.82;;;;;;;;;;5053939;28;20420;-72
2022/11/17 08:55:58;;;;;;;25.52;6.20;;;;;;;;;;5053942;28;20037;-71
2022/11/17 08:58:24;;;;;;;29.98;8.07;;;;;;;;;;5053891;28;20045;-72
2022/11/17 09:00:50;;;;;;;26.08;7.35;;;;;;;;;;5054046;28;20496;-72
2022/11/17 09:03:16;;;;;;;24.20;4.65;;;;;;;;;;5053808;28;20128;-72
2022/11/17 09:05:46;;;;;;;20.05;5.30;;;;;;;;;;5053777;28;20060;-72
2022/11/17 09:08:13;;;;;;;15.77;3.53;;;;;;;;;;5054059;28;20536;-72
2022/11/17 09:10:39;;;;;;;31.33;7.47;;;;;;;;;;5053563;28;20044;-72
2022/11/17 09:13:05;;;;;;;22.30;4.97;;;;;;;;;;5054129;28;20037;-72
2022/11/17 09:15:32;;;;;;;24.45;5.72;;;;;;;;;;5053640;28;20045;-72
2022/11/17 09:17:58;;;;;;;25.15;5.82;;;;;;;;;;5053999;28;20496;-72
2022/11/17 09:20:24;;;;;;;19.90;5.35;;;;;;;;;;5054229;28;20048;-72
2022/11/17 09:22:50;;;;;;;23.38;4.68;;;;;;;;;;5054459;28;20056;-72
2022/11/17 09:25:17;;;;;;;20.70;5.20;;;;;;;;;;5053779;28;20053;-72
2022/11/17 09:27:43;;;;;;;21.90;6.00;;;;;;;;;;5053905;28;20048;-72
2022/11/17 09:30:09;;;;;;;19.70;3.75;;;;;;;;;;5057768;28;20037;-72
2022/11/17 09:32:36;;;;;;;22.50;5.85;;;;;;;;;;5058359;28;20032;-72
2022/11/17 09:35:05;;;;;;;22.67;4.60;;;;;;;;;;5057786;28;20041;-72
2022/11/17 09:37:32;;;;;;;19.90;5.40;;;;;;;;;;5057639;28;20045;-72
2022/11/17 09:39:58;;;;;;;20.63;5.32;;;;;;;;;;5057971;28;20045;-72
2022/11/17 09:42:24;;;;;;;20.92;5.00;;;;;;;;;;5057612;28;20041;-72
2022/11/17 09:44:51;;;;;;;19.58;4.00;;;;;;;;;;5057692;28;20041;-71
2022/11/17 09:47:20;;;;;;;17.55;4.43;;;;;;;;;;5057486;28;20063;-72
2022/11/17 09:49:52;;;;;;;20.02;4.15;;;;;;;;;;5056898;28;20408;-72
2022/11/17 09:52:31;;;;;;;17.73;4.95;;;;;;;;;;5058024;28;20048;-72
2022/11/17 09:55:02;;;;;;;13.50;3.70;;;;;;;;;;5057003;28;20112;-72
2022/11/17 09:57:33;;;;;;;14.10;3.28;;;;;;;;;;5057352;28;20500;-72
2022/11/17 10:00:06;;;;;;;22.88;4.53;;;;;;;;;;5057067;28;20043;-72
2022/11/17 10:02:32;;;;;;;15.07;3.58;;;;;;;;;;5057195;28;20057;-72
2022/11/17 10:04:59;;;;;;;13.57;3.42;;;;;;;;;;5057237;28;20036;-72
2022/11/17 10:07:25;;;;;;;16.88;3.90;;;;;;;;;;5056908;28;20488;-72
2022/11/17 10:09:52;;;;;;;9.30;2.33;;;;;;;;;;5057246;28;20044;-72
2022/11/17 10:12:20;;;;;;;7.60;1.80;;;;;;;;;;5057138;28;20067;-72
2022/11/17 10:14:47;;;;;;;10.18;3.80;;;;;;;;;;5057035;28;20496;-72
2022/11/17 10:17:14;;;;;;;7.63;2.10;;;;;;;;;;5056920;28;20040;-72
2022/11/17 10:19:40;;;;;;;5.18;1.48;;;;;;;;;;5057321;28;20041;-72
2022/11/17 10:22:06;;;;;;;7.03;1.90;;;;;;;;;;5057034;28;20116;-72
2022/11/17 10:24:41;;;;;;;10.02;3.72;;;;;;;;;;5056814;28;20036;-72
2022/11/17 10:27:19;;;;;;;7.90;2.38;;;;;;;;;;5056220;28;20105;-72
2022/11/17 10:30:15;;;;;;;6.22;1.83;;;;;;;;;;5056720;28;20049;-72
2022/11/17 10:32:49;;;;;;;7.30;1.90;;;;;;;;;;5051099;28;20109;-72
2022/11/17 10:35:17;;;;;;;7.22;2.78;;;;;;;;;;5056053;28;20037;-72
2022/11/17 10:37:51;;;;;;;13.02;4.90;;;;;;;;;;5056285;28;20037;-72
2022/11/17 10:40:20;;;;;;;3.60;1.52;;;;;;;;;;5055688;28;20077;-72
2022/11/17 10:42:57;;;;;;;4.00;1.33;;;;;;;;;;5055974;28;20369;-72
2022/11/17 10:45:23;;;;;;;6.15;1.67;;;;;;;;;;5056218;28;20109;-72
2022/11/17 10:47:50;;;;;;;6.25;1.85;;;;;;;;;;5056943;28;20114;-72
2022/11/17 10:50:26;;;;;;;5.90;1.50;;;;;;;;;;5056306;28;20056;-72
2022/11/17 10:52:54;;;;;;;7.55;1.55;;;;;;;;;;5056340;28;20180;-72
2022/11/17 10:55:32;;;;;;;4.40;1.48;;;;;;;;;;5055824;28;20051;-72
2022/11/17 10:58:16;;;;;;;4.50;1.50;;;;;;;;;;5055628;28;20499;-72
2022/11/17 11:00:44;;;;;;;5.47;2.30;;;;;;;;;;5056157;28;20040;-72
2022/11/17 11:03:18;;;;;;;5.65;1.60;;;;;;;;;;5055919;28;20041;-72
2022/11/17 11:05:56;;;;;;;6.07;1.60;;;;;;;;;;5055463;28;20062;-72
2022/11/17 11:08:24;;;;;;;8.52;3.05;;;;;;;;;;5056523;28;20033;-72
2022/11/17 11:10:51;;;;;;;4.28;1.80;;;;;;;;;;5055020;28;20155;-72
2022/11/17 11:13:30;;;;;;;8.77;2.42;;;;;;;;;;5055653;28;20040;-72
2022/11/17 11:15:56;;;;;;;5.65;1.90;;;;;;;;;;5055585;28;20048;-72
2022/11/17 11:18:23;;;;;;;8.27;2.40;;;;;;;;;;5056122;28;20126;-72
2022/11/17 11:21:06;;;;;;;9.82;4.38;;;;;;;;;;5055721;28;20037;-72
2022/11/17 11:23:38;;;;;;;7.18;1.83;;;;;;;;;;5055799;28;20053;-72
2022/11/17 11:26:12;;;;;;;4.88;1.65;;;;;;;;;;5054864;28;20106;-72
2022/11/17 11:28:48;;;;;;;8.52;2.22;;;;;;;;;;5055464;28;20048;-72
2022/11/17 11:31:20;;;;;;;9.75;2.67;;;;;;;;;;5055386;28;20073;-72
2022/11/17 11:33:53;;;;;;;9.93;2.22;;;;;;;;;;5054913;28;20488;-72
2022/11/17 11:36:38;;;;;;;11.90;2.00;;;;;;;;;;5055177;28;20060;-72
2022/11/17 11:39:06;;;;;;;7.65;3.42;;;;;;;;;;5055459;28;20040;-72
2022/11/17 11:41:35;;;;;;;8.93;1.80;;;;;;;;;;5054671;28;20041;-72
2022/11/17 11:44:02;;;;;;;6.38;1.90;;;;;;;;;;5055105;28;20041;-72
2022/11/17 11:46:34;;;;;;;5.20;2.13;;;;;;;;;;5055062;28;20523;-72
2022/11/17 11:49:04;;;;;;;10.75;3.30;;;;;;;;;;5055348;28;20055;-72
2022/11/17 11:51:37;;;;;;;13.35;4.65;;;;;;;;;;5054160;28;20071;-72
2022/11/17 11:54:12;;;;;;;10.65;3.22;;;;;;;;;;5055230;28;20052;-72
2022/11/17 11:56:40;;;;;;;56.67;31.55;;;;;;;;;;5054332;28;20045;-72
2022/11/17 11:59:10;;;;;;;11.82;3.42;;;;;;;;;;5055148;28;20047;-72
2022/11/17 12:01:43;;;;;;;19.25;6.32;;;;;;;;;;5054845;28;20048;-72
2022/11/17 12:04:18;;;;;;;13.48;3.20;;;;;;;;;;5055073;28;20040;-72
2022/11/17 12:06:44;;;;;;;11.93;6.68;;;;;;;;;;5054673;28;20048;-72
2022/11/17 12:09:16;;;;;;;16.38;4.88;;;;;;;;;;5054930;28;20041;-72
2022/11/17 12:12:01;;;;;;;14.65;3.70;;;;;;;;;;5054227;28;20048;-72
2022/11/17 12:14:28;;;;;;;29.55;15.55;;;;;;;;;;5054882;28;20040;-72
2022/11/17 12:17:03;;;;;;;15.73;3.83;;;;;;;;;;5054775;28;20076;-72
2022/11/17 12:19:44;;;;;;;13.02;3.03;;;;;;;;;;5054426;28;20480;-72
2022/11/17 12:22:09;;;;;;;;;;;;;;;;;;5054683;28;20041;-72
2022/11/17 12:24:41;;;;;;;18.35;3.28;;;;;;;;;;5053998;28;19917;-72
2022/11/17 12:27:31;;;;;;;14.30;3.35;;;;;;;;;;5054784;28;20051;-72
2022/11/17 12:29:57;;;;;;;16.08;4.50;;;;;;;;;;5051213;28;20044;-72
2022/11/17 12:32:49;;;;;;;18.85;3.75;;;;;;;;;;5054423;28;20632;-72
2022/11/17 12:35:32;;;;;;;21.05;7.15;;;;;;;;;;5053104;28;20510;-72
2022/11/17 12:38:16;;;;;;;16.00;4.20;;;;;;;;;;5054880;28;20082;-72
2022/11/17 12:40:52;;;;;;;16.13;3.97;;;;;;;;;;5054443;28;20116;-72
2022/11/17 12:43:18;;;;;;;16.25;4.00;;;;;;;;;;5053988;28;20064;-72
2022/11/17 12:46:03;;;;;;;13.13;4.05;;;;;;;;;;5054000;28;20045;-72
2022/11/17 12:48:31;;;;;;;16.65;3.92;;;;;;;;;;5054536;28;20033;-72
2022/11/17 12:50:59;;;;;;;22.30;7.38;;;;;;;;;;5054407;28;20491;-71
2022/11/17 12:53:28;;;;;;;20.38;6.03;;;;;;;;;;5054192;28;20124;-72
2022/11/17 12:55:57;;;;;;;16.52;3.15;;;;;;;;;;5054026;28;20080;-72
2022/11/17 12:58:29;;;;;;;19.17;4.35;;;;;;;;;;5053890;28;20048;-72
2022/11/17 13:01:25;;;;;;;17.38;3.70;;;;;;;;;;5053960;28;20041;-72
2022/11/17 13:04:04;;;;;;;17.00;4.75;;;;;;;;;;5051721;28;20051;-72
2022/11/17 13:06:30;;;;;;;24.90;6.40;;;;;;;;;;5058084;28;20047;-72
2022/11/17 13:08:57;;;;;;;14.43;4.85;;;;;;;;;;5058632;28;20044;-72
2022/11/17 13:11:24;;;;;;;18.48;4.35;;;;;;;;;;5058024;28;20029;-72
2022/11/17 13:13:50;;;;;;;18.75;6.15;;;;;;;;;;5057637;28;20443;-72
2022/11/17 13:16:20;;;;;;;15.60;4.55;;;;;;;;;;5057769;28;20037;-72
2022/11/17 13:18:47;;;;;;;20.67;4.43;;;;;;;;;;5057642;28;20041;-72
2022/11/17 13:21:28;;;;;;;16.52;4.70;;;;;;;;;;5057493;28;20041;-72
2022/11/17 13:23:54;;;;;;;15.93;4.40;;;;;;;;;;5057477;28;20056;-72
2022/11/17 13:26:24;;;;;;;19.42;4.32;;;;;;;;;;5057168;28;20045;-72
2022/11/17 13:29:03;;;;;;;17.87;4.27;;;;;;;;;;5058264;28;20095;-72
2022/11/17 13:31:29;;;;;;;21.52;4.18;;;;;;;;;;5057575;28;20782;-72
2022/11/17 13:33:59;;;;;;;15.38;3.63;;;;;;;;;;5057300;28;20488;-72
2022/11/17 13:36:26;;;;;;;16.27;4.23;;;;;;;;;;5057728;28;20072;-72
2022/11/17 13:38:55;;;;;;;20.58;3.65;;;;;;;;;;5057817;28;20049;-72
2022/11/17 13:41:23;;;;;;;18.48;4.10;;;;;;;;;;5057159;28;20059;-72
2022/11/17 13:43:50;;;;;;;22.20;3.65;;;;;;;;;;5057874;28;20033;-72
2022/11/17 13:46:16;;;;;;;22.52;3.92;;;;;;;;;;5057380;28;20041;-72
2022/11/17 13:48:44;;;;;;;15.30;3.58;;;;;;;;;;5056917;28;20543;-72
2022/11/17 13:51:40;;;;;;;17.70;3.45;;;;;;;;;;5057226;28;20044;-72
2022/11/17 13:54:12;;;;;;;17.42;3.67;;;;;;;;;;5055038;28;20063;-72
2022/11/17 13:56:40;;;;;;;15.75;3.10;;;;;;;;;;5056611;28;20045;-72
2022/11/17 13:59:26;;;;;;;16.73;3.72;;;;;;;;;;5057405;28;20045;-72
2022/11/17 14:02:11;;;;;;;14.18;4.35;;;;;;;;;;5056628;28;20110;-72
2022/11/17 14:04:37;;;;;;;13.27;2.92;;;;;;;;;;5057143;28;20072;-72
2022/11/17 14:07:03;;;;;;;21.65;4.90;;;;;;;;;;5056666;28;20052;-72
2022/11/17 14:09:33;;;;;;;13.90;3.90;;;;;;;;;;5057028;28;20048;-72
2022/11/17 14:12:00;;;;;;;20.77;4.85;;;;;;;;;;5056968;28;20121;-72
2022/11/17 14:14:46;;;;;;;29.35;10.02;;;;;;;;;;5056174;28;20045;-72
2022/11/17 14:17:21;;;;;;;22.75;7.88;;;;;;;;;;5056553;28;20049;-72
2022/11/17 14:19:48;;;;;;;17.35;4.78;;;;;;;;;;5056960;28;20045;-72
2022/11/17 14:22:14;;;;;;;21.20;5.63;;;;;;;;;;5056915;28;20500;-72
2022/11/17 14:24:40;;;;;;;13.13;2.95;;;;;;;;;;5056222;28;20412;-72
2022/11/17 14:27:39;;;;;;;18.88;7.75;;;;;;;;;;5057460;28;20072;-72
2022/11/17 14:30:05;;;;;;;18.15;3.90;;;;;;;;;;5044157;28;20044;-72
2022/11/17 14:32:33;;;;;;;17.30;4.93;;;;;;;;;;5056491;28;20437;-72
2022/11/17 14:34:59;;;;;;;16.80;3.80;;;;;;;;;;5056394;28;20060;-72
2022/11/17 14:37:26;;;;;;;17.52;3.63;;;;;;;;;;5057165;28;20049;-72
2022/11/17 14:39:52;;;;;;;45.65;14.00;;;;;;;;;;5056685;28;20048;-72
2022/11/17 14:42:18;;;;;;;23.35;6.15;;;;;;;;;;5056342;28;20094;-71
2022/11/17 14:44:44;;;;;;;23.08;10.20;;;;;;;;;;5056517;28;20102;-71
2022/11/17 14:47:10;;;;;;;57.40;27.40;;;;;;;;;;5056751;28;20479;-72
2022/11/17 14:49:36;;;;;;;35.35;14.98;;;;;;;;;;5056942;28;20047;-71
2022/11/17 14:52:02;;;;;;;25.67;9.90;;;;;;;;;;5056396;28;20037;-72
2022/11/17 14:54:28;;;;;;;16.38;4.50;;;;;;;;;;5056338;28;20041;-72
2022/11/17 14:56:54;;;;;;;17.58;4.80;;;;;;;;;;5056564;28;20514;-72
2022/11/17 14:59:21;;;;;;;35.35;12.25;;;;;;;;;;5056798;28;20044;-72
2022/11/17 15:01:47;;;;;;;20.92;5.38;;;;;;;;;;5055949;28;20043;-72
2022/11/17 15:04:14;;;;;;;13.05;3.45;;;;;;;;;;5055845;28;20055;-72
2022/11/17 15:06:40;;;;;;;18.13;4.55;;;;;;;;;;5056085;28;20032;-72
2022/11/17 15:09:07;;;;;;;18.70;4.63;;;;;;;;;;5056682;28;20045;-72
2022/11/17 15:11:33;;;;;;;19.90;5.18;;;;;;;;;;5055848;28;20044;-72